Aérodrome :
LOGIN :

S'inscrire | Disclaimer

   EN    FR    IT 

 










Légende :    VFR   VFR Marginal   IFR   IFR Intensif   IFR Très Intensif
Visi : 
Plafond : 
>= 8 km
>= 3000ft
5 à 8 km
1000 à 3000 ft
1500m à 5 km
500 à 1000 ft
800 à 1500m
200 à 500 ft
< 800m
< 200 ft
Symboles :   Orages  Brouillard  Fortes neiges  Fortes précipitations  Vent > 20 kt
SIGMETs :   Divers  Orages  Givrage  Turbulence  Onde Orograph.  Cendres Volcan.






- Altitude de l'aérodrome : 215 ft
- Code IATA : ABZ


EGPD - Aberdeen / Dyce

DERNIER METAR :
  • 172150Z AUTO 26008KT 220V280 9999 NCD 04/M01 Q1007 NOSIG

METARs EXPIRÉS :
  • 172120Z AUTO 24007KT 200V280 9999 NCD 05/M01 Q1007 NOSIG
  • 172050Z AUTO 21005KT 150V260 9999 NCD 05/M00 Q1006 NOSIG
  • 172020Z AUTO 26008KT 230V020 9999 NCD 05/M00 Q1006 NOSIG
  • 171950Z AUTO 23006KT 190V260 9999 NCD 04/M01 Q1006 NOSIG
  • 171920Z AUTO 27007KT 9999 NCD 05/M01 Q1005

TAF TAF EGPD
Valide du 17 à 18h jusqu'au 18 à 18h UTC


171703Z 1718/1818 24009KT 9999 FEW030
PROB30
TEMPO 1718/1721 6000 SHRA
TEMPO 1800/1818 28015G25KT
PROB30
TEMPO 1815/1818 29020G35KT



MET'MAP, la Météo Aéronautique d'un coup d'oeil ! - Copyright ORBIFLY Décembre 2007 - Disclaimer

ORBIFLY MET'MAP TEAM :

Programmation & Développement : Alexandra Zaïnal
Sur une idée originale de : Baudouin d'Aumeries
Assistance à la programmation : Marc-Olivier Méhu
Soutien technique & logistique : Manuel Goepfert

Contact : metmap@orbifly.com




SOURCES & CREDITS :

   NOAA